AirNav   Everest Fuels
 
 1359 users online  

49F Rankin Airport
Rankin, Texas, USA

GOING TO RANKIN?


FAA INFORMATION EFFECTIVE 20 MAY 2021

Location

FAA Identifier: 49F
Lat/Long: 31-13-37.3000N 101-57-10.5000W
31-13.621667N 101-57.175000W
31.2270278,-101.9529167
(estimated)
Elevation: 2543 ft. / 775.1 m (surveyed)
Variation: 09E (1985)
From city: 1 mile W of RANKIN, TX
Time zone: UTC -5 (UTC -6 during Standard Time)
Zip code: 79755

Airport Operations

Airport use: Open to the public
Control tower: no
ARTCC: HOUSTON CENTER
FSS: SAN ANGELO FLIGHT SERVICE STATION
NOTAMs facility: SJT (NOTAM-D service available)
Attendance: UNATNDD
AIRPORT GATE LOCKED. FOR ACCESS CALL SHERIFF'S OFFICE 432-693-2411.
Wind indicator: yes
Segmented circle: no

Airport Communications

CTAF: 122.9

Airport Services

Airframe service: NONE
Powerplant service: NONE

Runway Information

Runway 17/35

Dimensions: 3000 x 35 ft. / 914 x 11 m
Surface: gravel/dirt, in good condition
RUNWAY 17  RUNWAY 35
Latitude: 31-13.869785N31-13.374853N
Longitude: 101-57.178738W101-57.172263W
Elevation: 2541.0 ft.2509.0 ft.
Traffic pattern: leftleft
Runway heading: 170 magnetic, 179 true350 magnetic, 359 true
Obstructions: 60 ft. hill, 1500 ft. from runway, 25:1 slope to clear20 ft. trees, 368 ft. from runway, 8:1 slope to clear

Airport Ownership and Management from official FAA records

Ownership: Publicly-owned
Owner: UPTON COUNTY
UPTON CO COURTHOUSE
RANKIN, TX 79778
Phone 432-693-2321
Manager: BOB MARTIN
UPTON COUNTY AIRPORT (E48)
MC CAMEY, TX 79752
Phone 432-413-8589

Airport Operational Statistics

Aircraft operations: 24/year *
100% transient general aviation
* for 12-month period ending 25 January 2018

Additional Remarks

FOR CD CTC HOUSTON ARTCC AT 281-230-5622.

Instrument Procedures

There are no published instrument procedures at 49F.

Some nearby airports with instrument procedures:

E41 - Reagan County Airport (25 nm E)
KMAF - Midland International Air and Space Port Airport (45 nm N)
KODO - Odessa Airport-Schlemeyer Field (47 nm NW)
KOZA - Ozona Municipal Airport (49 nm SE)
KMDD - Midland Airpark (49 nm N)
 
Loc | Ops | Rwys | IFR | FBO | Links
Com | Nav | Svcs | Stats | Notes

Chandler Aviation LLC
 
Area around 49F (Rankin Airport)
 
Road maps at: MapQuest Bing Google
 
Aerial photo
No photo
 
Sectional chart

 
Airport distance calculator
Flying to Rankin Airport? Find the distance to fly.

From to 49F

Sunrise and sunset
Times for 14-Jun-2021
 Local
(UTC-5)
 Zulu
(UTC)
Morning civil twilight06:1611:16
Sunrise06:4411:44
Sunset20:5201:52
Evening civil twilight21:2002:20

Current date and time
Zulu (UTC)  14-Jun-2021 21:26:05
Local (UTC-5)  14-Jun-2021 16:26:05
 
METAR
KE41 
25nm E 
142055Z AUTO 01006KT 10SM DZ SCT046 SCT060 BKN095 21/18 A3012 RMK AO2 LTG DSNT S T02100181 60028
KMAF 
45nm N 
142053Z 08015G23KT 10SM CLR 29/17 A3010 RMK AO2 SLP143 T02940167 56017
KODO 
47nm NW 
142053Z AUTO 10017G23KT 10SM CLR 31/16 A3010 RMK AO2 SLP144 T03110156 55020
KOZA 
49nm SE 
142055Z AUTO 32010G17KT 10SM TS BKN055 OVC065 26/14 A3010 RMK AO2 LTG DSNT S THRU NW
TAF
KMAF 
45nm N 
141720Z 1418/1518 09014G21KT P6SM BKN250 FM150200 08009KT P6SM SCT250
NOTAMs
Click for the latest NOTAMs
NOTAMs are issued by the DoD/FAA and will open in a separate window not controlled by AirNav.

 

 
 

Would you like to see your business listed on this page?

 If your business provides an interesting product or service to pilots, flight crews, aircraft, or users of the Rankin Airport, you should consider listing it here.  To start the listing process, click on the button below
 
Add a business
 

Other Pages about Rankin Airport

Update a link
 
Copyright © AirNav, LLC. All rights reserved. Privacy Policy  Contact